createdAt,value
2017-04-27T00:00:21.919Z,58.7
2017-04-27T00:01:23.709Z,59
2017-04-27T00:02:25.502Z,58.9
2017-04-27T00:03:27.293Z,58.9
2017-04-27T00:04:29.093Z,58.9
2017-04-27T00:05:30.885Z,59
2017-04-27T00:06:33.028Z,58.9
2017-04-27T00:07:34.824Z,58.9
2017-04-27T00:08:36.649Z,58.9
2017-04-27T00:09:38.452Z,58.8
2017-04-27T00:10:40.246Z,58.8
2017-04-27T00:11:42.043Z,58.9
2017-04-27T00:12:43.836Z,58.9
2017-04-27T00:13:45.971Z,58.9
2017-04-27T00:14:47.762Z,58.9
2017-04-27T00:15:49.562Z,58.9
2017-04-27T00:16:51.348Z,58.9
2017-04-27T00:17:53.145Z,58.9
2017-04-27T00:18:54.936Z,59
2017-04-27T00:19:56.730Z,59.1
2017-04-27T00:20:58.522Z,59
2017-04-27T00:22:00.316Z,59.1
2017-04-27T00:23:02.114Z,59.2
2017-04-27T00:24:04.246Z,59.1
2017-04-27T00:25:06.038Z,59.1
2017-04-27T00:26:07.832Z,59.1
2017-04-27T00:27:09.627Z,59.1
2017-04-27T00:28:11.769Z,59.1
2017-04-27T00:29:13.554Z,59.1
2017-04-27T00:30:15.358Z,59.1
2017-04-27T00:31:17.154Z,59.1
2017-04-27T00:32:18.953Z,59.2
2017-04-27T00:33:20.749Z,59.1
2017-04-27T00:34:22.549Z,59
2017-04-27T00:35:24.344Z,59
2017-04-27T00:36:26.146Z,59.1
2017-04-27T00:37:27.934Z,59.2
2017-04-27T00:38:29.730Z,59.2
2017-04-27T00:39:31.521Z,59.2
2017-04-27T00:40:33.322Z,59.2
2017-04-27T00:41:35.112Z,59.2
2017-04-27T00:42:36.904Z,59.1
2017-04-27T00:43:38.693Z,59.2
2017-04-27T00:44:40.483Z,59.2
2017-04-27T00:45:42.275Z,59.2
2017-04-27T00:46:44.071Z,59.2
2017-04-27T00:47:45.860Z,59.2
2017-04-27T00:48:47.655Z,59.2
2017-04-27T00:49:49.445Z,59.2
2017-04-27T00:50:51.247Z,59.2
2017-04-27T00:51:53.037Z,59.2
2017-04-27T00:52:54.834Z,59.2
2017-04-27T00:53:56.629Z,59.3
2017-04-27T00:54:58.422Z,59.2
2017-04-27T00:56:00.554Z,59.3
2017-04-27T00:57:02.347Z,59.3
2017-04-27T00:58:04.139Z,59.4
2017-04-27T00:59:05.943Z,59.4
2017-04-27T01:00:07.733Z,59.3
2017-04-27T01:01:09.525Z,59.3
2017-04-27T01:02:11.679Z,59.4
2017-04-27T01:03:13.808Z,59.4
2017-04-27T01:04:15.605Z,59.5
2017-04-27T01:05:17.401Z,59.5
2017-04-27T01:06:19.548Z,59.5
2017-04-27T01:07:21.343Z,59.5
2017-04-27T01:08:23.812Z,59.5
2017-04-27T01:09:25.953Z,59.5
2017-04-27T01:10:27.742Z,59.6
2017-04-27T01:11:29.541Z,59.5
2017-04-27T01:12:31.341Z,59.5
2017-04-27T01:13:33.473Z,59.4
2017-04-27T01:14:35.614Z,59.5
2017-04-27T01:15:37.414Z,59.5
2017-04-27T01:16:39.209Z,59.6
2017-04-27T01:17:41.008Z,59.4
2017-04-27T01:18:42.804Z,59.6
2017-04-27T01:19:44.627Z,59.5
2017-04-27T01:20:46.771Z,59.5
2017-04-27T01:21:48.569Z,59.5
2017-04-27T01:22:50.365Z,59.5
2017-04-27T01:23:52.496Z,59.5
2017-04-27T01:24:54.294Z,59.5
2017-04-27T01:25:56.090Z,59.5
2017-04-27T01:26:57.881Z,59.5
2017-04-27T01:27:59.673Z,59.6
2017-04-27T01:29:01.469Z,59.6
2017-04-27T01:30:03.257Z,59.5
2017-04-27T01:31:05.096Z,59.6
2017-04-27T01:32:06.895Z,59.6
2017-04-27T01:33:08.688Z,59.7
2017-04-27T01:34:10.823Z,59.6
2017-04-27T01:35:12.614Z,59.7
2017-04-27T01:36:14.414Z,59.6
2017-04-27T01:37:16.543Z,59.6
2017-04-27T01:38:18.678Z,59.6
2017-04-27T01:39:20.810Z,59.7
2017-04-27T01:40:22.610Z,59.6
2017-04-27T01:41:24.402Z,59.6
2017-04-27T01:42:26.196Z,59.6
2017-04-27T01:43:27.986Z,59.6
2017-04-27T01:44:29.780Z,59.6
2017-04-27T01:45:31.906Z,59.6
2017-04-27T01:46:33.704Z,59.6
2017-04-27T01:47:35.832Z,59.7
2017-04-27T01:48:37.999Z,59.7
2017-04-27T01:49:39.791Z,59.6
2017-04-27T01:50:41.586Z,59.8
2017-04-27T01:51:43.375Z,59.7
2017-04-27T01:52:45.175Z,59.8
2017-04-27T01:53:46.973Z,59.8
2017-04-27T01:54:48.765Z,59.8
2017-04-27T01:55:50.560Z,59.7
2017-04-27T01:56:52.359Z,59.7
2017-04-27T01:57:54.151Z,59.7
2017-04-27T01:58:55.952Z,59.8
2017-04-27T01:59:57.742Z,59.8
2017-04-27T02:00:59.546Z,59.8
2017-04-27T02:02:01.677Z,59.8
2017-04-27T02:03:03.482Z,59.8
2017-04-27T02:04:05.269Z,59.9
2017-04-27T02:05:07.061Z,59.8
2017-04-27T02:06:08.855Z,59.7
2017-04-27T02:07:10.654Z,59.9
2017-04-27T02:08:12.445Z,59.8
2017-04-27T02:09:14.247Z,59.8
2017-04-27T02:10:16.390Z,59.8
2017-04-27T02:11:18.190Z,59.8
2017-04-27T02:12:19.982Z,59.9
2017-04-27T02:13:22.109Z,59.8
2017-04-27T02:14:24.238Z,59.9
2017-04-27T02:15:26.032Z,59.8
2017-04-27T02:16:27.833Z,59.8
2017-04-27T02:17:29.632Z,59.9
2017-04-27T02:18:31.425Z,60
2017-04-27T02:19:33.220Z,60
2017-04-27T02:20:35.006Z,60
2017-04-27T02:21:36.806Z,60
2017-04-27T02:22:38.933Z,59.9
2017-04-27T02:23:40.728Z,60
2017-04-27T02:24:42.855Z,59.9
2017-04-27T02:25:44.987Z,60
2017-04-27T02:26:46.778Z,59.9
2017-04-27T02:27:49.241Z,59.9
2017-04-27T02:28:51.040Z,59.9
2017-04-27T02:29:52.835Z,59.9
2017-04-27T02:30:54.627Z,60
2017-04-27T02:31:56.425Z,59.9
2017-04-27T02:32:58.215Z,60
2017-04-27T02:34:00.008Z,60
2017-04-27T02:35:02.154Z,60
2017-04-27T02:36:03.949Z,60
2017-04-27T02:37:05.746Z,60.1
2017-04-27T02:38:07.542Z,60.1
2017-04-27T02:39:09.339Z,60
2017-04-27T02:40:11.133Z,60
2017-04-27T02:41:12.929Z,60
2017-04-27T02:42:14.722Z,60
2017-04-27T02:43:16.512Z,60
2017-04-27T02:44:18.310Z,60
2017-04-27T02:45:20.102Z,60
2017-04-27T02:46:21.897Z,60
2017-04-27T02:47:23.689Z,60
2017-04-27T02:48:25.485Z,60
2017-04-27T02:49:27.273Z,60
2017-04-27T02:50:29.067Z,60
2017-04-27T02:51:30.861Z,60
2017-04-27T02:52:32.654Z,60
2017-04-27T02:53:34.790Z,60
2017-04-27T02:54:36.583Z,60
2017-04-27T02:55:38.376Z,60
2017-04-27T02:56:40.167Z,60
2017-04-27T02:57:41.971Z,60
2017-04-27T02:58:43.764Z,60.1
2017-04-27T02:59:45.557Z,60.1
2017-04-27T03:00:47.352Z,60.1
2017-04-27T03:01:49.485Z,60.1
2017-04-27T03:02:51.295Z,60.1
2017-04-27T03:03:53.431Z,60
2017-04-27T03:04:55.222Z,60
2017-04-27T03:05:57.023Z,60
2017-04-27T03:06:58.815Z,60
2017-04-27T03:08:00.617Z,60
2017-04-27T03:09:02.408Z,60.1
2017-04-27T03:10:04.196Z,60
2017-04-27T03:11:05.995Z,60
2017-04-27T03:12:07.783Z,60
2017-04-27T03:13:09.575Z,60
2017-04-27T03:14:11.721Z,60
2017-04-27T03:15:13.520Z,60
2017-04-27T03:16:15.311Z,60.1
2017-04-27T03:17:17.440Z,60
2017-04-27T03:18:19.243Z,60
2017-04-27T03:19:21.036Z,60.1
2017-04-27T03:20:23.172Z,60.1
2017-04-27T03:21:24.970Z,60.1
2017-04-27T03:22:26.759Z,60.1
2017-04-27T03:23:28.897Z,60.1
2017-04-27T03:24:31.024Z,60.2
2017-04-27T03:25:32.822Z,60.1
2017-04-27T03:26:34.615Z,60.1
2017-04-27T03:27:36.744Z,60.2
2017-04-27T03:28:38.884Z,60.2
2017-04-27T03:29:40.674Z,60.3
2017-04-27T03:30:42.470Z,60.1
2017-04-27T03:31:44.260Z,60
2017-04-27T03:32:46.393Z,60.1
2017-04-27T03:33:48.536Z,60.1
2017-04-27T03:34:50.334Z,60.2
2017-04-27T03:35:52.131Z,60.2
2017-04-27T03:36:53.928Z,60.2
2017-04-27T03:37:56.405Z,60.2
2017-04-27T03:38:58.541Z,60.2
2017-04-27T03:40:00.334Z,60.2
2017-04-27T03:41:02.126Z,60.2
2017-04-27T03:42:03.915Z,60.2
2017-04-27T03:43:05.705Z,60.2
2017-04-27T03:44:07.839Z,60.2
2017-04-27T03:45:09.627Z,60.2
2017-04-27T03:46:11.425Z,60.1
2017-04-27T03:47:13.217Z,60.1
2017-04-27T03:48:15.012Z,60.1
2017-04-27T03:49:16.832Z,60.2
2017-04-27T03:50:18.626Z,60.2
2017-04-27T03:51:20.422Z,60.2
2017-04-27T03:52:22.557Z,60.3
2017-04-27T03:53:24.686Z,60.3
2017-04-27T03:54:26.482Z,60.3
2017-04-27T03:55:28.616Z,60.4
2017-04-27T03:56:30.411Z,60.4
2017-04-27T03:57:32.208Z,60.5
2017-04-27T03:58:34.010Z,60.4
2017-04-27T03:59:35.804Z,60.4
2017-04-27T04:00:37.591Z,60.4
2017-04-27T04:01:39.387Z,60.3
2017-04-27T04:02:41.181Z,60.3
2017-04-27T04:03:43.352Z,60.4
2017-04-27T04:04:45.143Z,60.3
2017-04-27T04:05:47.268Z,60.3
2017-04-27T04:06:49.066Z,60.3
2017-04-27T04:07:50.860Z,60.3
2017-04-27T04:08:52.652Z,60.4
2017-04-27T04:09:54.448Z,60.4
2017-04-27T04:10:56.241Z,60.4
2017-04-27T04:11:58.067Z,60.4
2017-04-27T04:12:59.853Z,60.4
2017-04-27T04:14:01.985Z,60.4
2017-04-27T04:15:03.777Z,60.4
2017-04-27T04:16:05.617Z,60.4
2017-04-27T04:17:07.405Z,60.3
2017-04-27T04:18:09.201Z,60.5
2017-04-27T04:19:10.994Z,60.4
2017-04-27T04:20:12.798Z,60.5
2017-04-27T04:21:14.584Z,60.4
2017-04-27T04:22:16.376Z,60.5
2017-04-27T04:23:18.165Z,60.5
2017-04-27T04:24:19.961Z,60.5
2017-04-27T04:25:21.753Z,60.4
2017-04-27T04:26:23.546Z,60.5
2017-04-27T04:27:25.344Z,60.4
2017-04-27T04:28:27.130Z,60.5
2017-04-27T04:29:28.930Z,60.5
2017-04-27T04:30:30.731Z,60.5
2017-04-27T04:31:32.529Z,60.5
2017-04-27T04:32:34.321Z,60.5
2017-04-27T04:33:36.455Z,60.4
2017-04-27T04:34:38.586Z,60.5
2017-04-27T04:35:40.380Z,60.5
2017-04-27T04:36:42.532Z,60.5
2017-04-27T04:37:44.320Z,60.6
2017-04-27T04:38:46.453Z,60.5
2017-04-27T04:39:48.597Z,60.4
2017-04-27T04:40:50.394Z,60.5
2017-04-27T04:41:52.523Z,60.5
2017-04-27T04:42:54.317Z,60.5
2017-04-27T04:43:56.109Z,60.5
2017-04-27T04:44:58.241Z,60.5
2017-04-27T04:46:00.032Z,60.5
2017-04-27T04:47:01.821Z,60.5
2017-04-27T04:48:03.951Z,60.7
2017-04-27T04:49:06.088Z,60.7
2017-04-27T04:50:07.872Z,60.8
2017-04-27T04:51:09.674Z,60.7
2017-04-27T04:52:11.809Z,60.7
2017-04-27T04:53:13.944Z,60.7
2017-04-27T04:54:16.078Z,60.7
2017-04-27T04:55:17.873Z,60.6
2017-04-27T04:56:19.801Z,60.6
2017-04-27T04:57:21.789Z,60.7
2017-04-27T04:58:23.823Z,60.6
2017-04-27T04:59:25.749Z,60.7
2017-04-27T05:00:27.576Z,60.6
2017-04-27T05:01:29.374Z,60.6
2017-04-27T05:02:31.169Z,60.5
2017-04-27T05:03:32.960Z,60.6
2017-04-27T05:04:34.756Z,60.6
2017-04-27T05:05:36.548Z,60.5
2017-04-27T05:06:38.678Z,60.5
2017-04-27T05:07:40.807Z,60.6
2017-04-27T05:08:42.938Z,60.6
2017-04-27T05:09:44.726Z,60.6
2017-04-27T05:10:46.859Z,60.6
2017-04-27T05:11:48.659Z,60.7
2017-04-27T05:12:50.454Z,60.8
2017-04-27T05:13:52.250Z,60.9
2017-04-27T05:14:54.041Z,60.8
2017-04-27T05:15:56.184Z,60.9
2017-04-27T05:16:57.974Z,60.8
2017-04-27T05:17:59.774Z,60.8
2017-04-27T05:19:01.914Z,60.9
2017-04-27T05:20:03.709Z,60.8
2017-04-27T05:21:05.505Z,60.7
2017-04-27T05:22:07.302Z,60.7
2017-04-27T05:23:09.099Z,60.7
2017-04-27T05:24:10.893Z,60.8
2017-04-27T05:25:12.686Z,60.8
2017-04-27T05:26:14.490Z,60.8
2017-04-27T05:27:16.283Z,60.9
2017-04-27T05:28:18.773Z,60.8
2017-04-27T05:29:20.908Z,60.8
2017-04-27T05:30:22.709Z,60.9
2017-04-27T05:31:24.506Z,60.9
2017-04-27T05:32:26.638Z,60.8
2017-04-27T05:33:28.432Z,60.8
2017-04-27T05:34:30.231Z,60.7
2017-04-27T05:35:32.027Z,60.8
2017-04-27T05:36:33.820Z,60.8
2017-04-27T05:37:35.615Z,60.9
2017-04-27T05:38:38.079Z,60.9
2017-04-27T05:39:39.883Z,60.8
2017-04-27T05:40:41.676Z,60.9
2017-04-27T05:41:43.473Z,60.9
2017-04-27T05:42:45.268Z,60.8
2017-04-27T05:43:47.074Z,60.9
2017-04-27T05:44:48.875Z,61
2017-04-27T05:45:50.669Z,60.9
2017-04-27T05:46:52.463Z,61
2017-04-27T05:47:54.263Z,60.9
2017-04-27T05:48:56.056Z,60.9
2017-04-27T05:49:57.854Z,60.9
2017-04-27T05:50:59.646Z,60.9
2017-04-27T05:52:01.449Z,60.8
2017-04-27T05:53:03.247Z,60.8
2017-04-27T05:54:05.039Z,60.8
2017-04-27T05:55:06.840Z,60.8
2017-04-27T05:56:08.976Z,60.9
2017-04-27T05:57:10.776Z,61
2017-04-27T05:58:12.583Z,61
2017-04-27T05:59:14.397Z,61
2017-04-27T06:00:16.534Z,61
2017-04-27T06:01:18.328Z,60.9
2017-04-27T06:02:20.121Z,61
2017-04-27T06:03:21.914Z,60.9
2017-04-27T06:04:23.712Z,61
2017-04-27T06:05:25.543Z,60.9
2017-04-27T06:06:27.338Z,61
2017-04-27T06:07:29.136Z,61
2017-04-27T06:08:30.929Z,61
2017-04-27T06:09:32.727Z,61.1
2017-04-27T06:10:34.520Z,61.1
2017-04-27T06:11:36.318Z,61.1
2017-04-27T06:12:38.120Z,61.1
2017-04-27T06:13:40.256Z,61.1
2017-04-27T06:14:42.058Z,61.1
2017-04-27T06:15:43.851Z,60.9
2017-04-27T06:16:46.020Z,61.1
2017-04-27T06:17:47.816Z,61.1
2017-04-27T06:18:49.613Z,61.1
2017-04-27T06:19:51.407Z,61.1
2017-04-27T06:20:53.211Z,61
2017-04-27T06:21:55.013Z,61
2017-04-27T06:22:56.811Z,61
2017-04-27T06:23:58.941Z,61
2017-04-27T06:25:01.077Z,60.9
2017-04-27T06:26:02.878Z,60.9
2017-04-27T06:27:04.676Z,60.8
2017-04-27T06:28:06.473Z,60.8
2017-04-27T06:29:08.275Z,60.9
2017-04-27T06:30:10.070Z,61
2017-04-27T06:31:11.867Z,61
2017-04-27T06:32:13.663Z,60.9
2017-04-27T06:33:15.457Z,60.9
2017-04-27T06:34:17.256Z,60.9
2017-04-27T06:35:19.052Z,60.9
2017-04-27T06:36:20.856Z,60.9
2017-04-27T06:37:22.988Z,60.9
2017-04-27T06:38:24.793Z,60.7
2017-04-27T06:39:26.590Z,60.6
2017-04-27T06:40:28.390Z,60.6
2017-04-27T06:41:30.189Z,60.7
2017-04-27T06:42:31.985Z,60.6
2017-04-27T06:43:33.785Z,60.7
2017-04-27T06:44:35.595Z,60.7
2017-04-27T06:45:37.394Z,60.7
2017-04-27T06:46:39.195Z,60.7
2017-04-27T06:47:40.996Z,60.7
2017-04-27T06:48:42.791Z,60.7
2017-04-27T06:49:44.930Z,60.7
2017-04-27T06:50:46.731Z,60.5
2017-04-27T06:51:48.528Z,60.5
2017-04-27T06:52:50.341Z,60.6
2017-04-27T06:53:52.143Z,60.5
2017-04-27T06:54:53.947Z,60.6
2017-04-27T06:55:55.773Z,60.6
2017-04-27T06:56:57.567Z,60.8
2017-04-27T06:57:59.370Z,60.8
2017-04-27T06:59:01.169Z,60.6
2017-04-27T07:00:02.969Z,60.6
2017-04-27T07:01:04.762Z,60.6
2017-04-27T07:02:06.566Z,60.8
2017-04-27T07:03:08.362Z,60.7
2017-04-27T07:04:10.160Z,60.7
2017-04-27T07:05:11.960Z,60.6
2017-04-27T07:06:13.755Z,60.6
2017-04-27T07:07:15.559Z,60.6
2017-04-27T07:08:17.696Z,60.5
2017-04-27T07:09:19.851Z,60.4
2017-04-27T07:10:21.643Z,60.4
2017-04-27T07:11:23.447Z,60.4
2017-04-27T07:12:25.247Z,60.4
2017-04-27T07:13:27.048Z,60.4
2017-04-27T07:14:28.851Z,60.4
2017-04-27T07:15:30.986Z,60.4
2017-04-27T07:16:33.125Z,60.5
2017-04-27T07:17:34.936Z,60.4
2017-04-27T07:18:37.067Z,60.4
2017-04-27T07:19:38.870Z,60.5
2017-04-27T07:20:40.669Z,60.4
2017-04-27T07:21:42.819Z,60.3
2017-04-27T07:22:44.620Z,60.3
2017-04-27T07:23:46.419Z,60.3
2017-04-27T07:24:48.225Z,60.2
2017-04-27T07:25:50.022Z,60.4
2017-04-27T07:26:51.817Z,60.4
2017-04-27T07:27:53.618Z,60.4
2017-04-27T07:28:55.415Z,60.2
2017-04-27T07:29:57.218Z,60
2017-04-27T07:30:59.016Z,60.1
2017-04-27T07:32:01.154Z,60.2
2017-04-27T07:33:02.953Z,60.2
2017-04-27T07:34:04.780Z,60.4
2017-04-27T07:35:06.577Z,60.3
2017-04-27T07:36:08.375Z,60.3
2017-04-27T07:37:10.173Z,60.3
2017-04-27T07:38:11.979Z,59.4
2017-04-27T07:39:13.780Z,59.5
2017-04-27T07:40:15.918Z,59.3
2017-04-27T07:41:17.721Z,59.2
2017-04-27T07:42:19.523Z,59.1
2017-04-27T07:43:21.322Z,58.9
2017-04-27T07:44:23.122Z,58.8
2017-04-27T07:45:24.926Z,58.8
2017-04-27T07:46:26.729Z,58.9
2017-04-27T07:47:28.531Z,58.9
2017-04-27T07:48:30.325Z,59.1
2017-04-27T07:49:32.130Z,59
2017-04-27T07:50:33.932Z,58.9
2017-04-27T07:51:35.736Z,59
2017-04-27T07:52:37.533Z,58.9
2017-04-27T07:53:39.671Z,58.9
2017-04-27T07:54:41.476Z,59
2017-04-27T07:55:43.285Z,58.9
2017-04-27T07:56:45.081Z,58.8
2017-04-27T07:57:46.882Z,58.7
2017-04-27T07:58:48.679Z,58.6
2017-04-27T07:59:50.486Z,58.5
2017-04-27T08:00:52.285Z,58.6
2017-04-27T08:01:54.088Z,58.8
2017-04-27T08:02:55.889Z,58.8
2017-04-27T08:03:57.695Z,58.9
2017-04-27T08:04:59.498Z,58.8
2017-04-27T08:06:01.302Z,58.8
2017-04-27T08:07:03.106Z,59
2017-04-27T08:08:04.904Z,59.1
2017-04-27T08:09:06.706Z,58.9
2017-04-27T08:10:08.505Z,58.8
2017-04-27T08:11:10.310Z,58.8
2017-04-27T08:12:12.108Z,58.9
2017-04-27T08:13:13.912Z,58.9
2017-04-27T08:14:15.711Z,58.8
2017-04-27T08:15:17.512Z,58.6
2017-04-27T08:16:19.321Z,58.5
2017-04-27T08:17:21.132Z,58.4
2017-04-27T08:18:23.271Z,58.5
2017-04-27T08:19:25.080Z,58.5
2017-04-27T08:20:26.881Z,58.5
2017-04-27T08:21:28.683Z,58.4
2017-04-27T08:22:30.480Z,58.3
2017-04-27T08:23:32.625Z,58.2
2017-04-27T08:24:34.429Z,58.2
2017-04-27T08:25:36.229Z,58.3
2017-04-27T08:26:38.036Z,58.3
2017-04-27T08:27:39.833Z,58.4
2017-04-27T08:28:41.645Z,58.5
2017-04-27T08:29:43.443Z,58.4
2017-04-27T08:30:45.590Z,58.2
2017-04-27T08:31:47.393Z,58
2017-04-27T08:32:49.203Z,57.8
2017-04-27T08:33:51.339Z,57.8
2017-04-27T08:34:53.495Z,57.8
2017-04-27T08:35:55.306Z,57.6
2017-04-27T08:36:57.108Z,57.6
2017-04-27T08:37:58.916Z,57.8
2017-04-27T08:39:00.718Z,57.7
2017-04-27T08:40:02.518Z,57.6
2017-04-27T08:41:04.666Z,57.5
2017-04-27T08:42:06.463Z,57.2
2017-04-27T08:43:08.269Z,57.3
2017-04-27T08:44:10.072Z,57.2
2017-04-27T08:45:11.881Z,57.2
2017-04-27T08:46:13.684Z,57.2
2017-04-27T08:47:15.486Z,57.3
2017-04-27T08:48:17.300Z,57.3
2017-04-27T08:49:19.453Z,57.3
2017-04-27T08:50:21.263Z,57.4
2017-04-27T08:51:23.063Z,57.5
2017-04-27T08:52:24.868Z,57.6
2017-04-27T08:53:27.008Z,57.2
2017-04-27T08:54:28.814Z,56.9
2017-04-27T08:55:30.616Z,56.8
2017-04-27T08:56:32.777Z,57.2
2017-04-27T08:57:34.584Z,57.3
2017-04-27T08:58:36.390Z,57
2017-04-27T08:59:38.200Z,57
2017-04-27T09:00:40.003Z,57.2
2017-04-27T09:01:41.809Z,57.4
2017-04-27T09:02:43.615Z,57.5
2017-04-27T09:03:45.418Z,57.7
2017-04-27T09:04:47.225Z,57.6
2017-04-27T09:05:49.030Z,57.5
2017-04-27T09:06:50.834Z,57.7
2017-04-27T09:07:52.643Z,57.8
2017-04-27T09:08:54.446Z,58
2017-04-27T09:09:56.262Z,57.8
2017-04-27T09:10:58.071Z,57.7
2017-04-27T09:11:59.880Z,57
2017-04-27T09:13:01.692Z,56
2017-04-27T09:14:03.840Z,56
2017-04-27T09:15:05.666Z,55.7
2017-04-27T09:16:07.472Z,55.6
2017-04-27T09:17:09.281Z,55.5
2017-04-27T09:18:11.083Z,55.6
2017-04-27T09:19:12.895Z,56.4
2017-04-27T09:20:14.704Z,57.2
2017-04-27T09:21:16.529Z,57.5
2017-04-27T09:22:18.331Z,57.9
2017-04-27T09:23:20.146Z,57.8
2017-04-27T09:24:21.961Z,57.3
2017-04-27T09:25:23.766Z,56.8
2017-04-27T09:26:25.578Z,56.9
2017-04-27T09:27:27.393Z,57.2
2017-04-27T09:28:29.204Z,56.8
2017-04-27T09:29:31.041Z,56.2
2017-04-27T09:30:32.844Z,56.3
2017-04-27T09:31:34.660Z,56.7
2017-04-27T09:32:36.472Z,56.9
2017-04-27T09:33:38.624Z,57.4
2017-04-27T09:34:40.435Z,57.7
2017-04-27T09:35:42.252Z,57.9
2017-04-27T09:36:44.062Z,58
2017-04-27T09:37:45.878Z,58.2
2017-04-27T09:38:47.701Z,57.5
2017-04-27T09:39:49.516Z,56.3
2017-04-27T09:40:51.335Z,56
2017-04-27T09:41:53.146Z,55.8
2017-04-27T09:42:54.964Z,54.9
2017-04-27T09:43:57.118Z,54
2017-04-27T09:44:59.609Z,53.4
2017-04-27T09:46:01.754Z,52.9
2017-04-27T09:47:03.564Z,52.8
2017-04-27T09:48:05.382Z,52.8
2017-04-27T09:49:07.193Z,52.8
2017-04-27T09:50:08.998Z,52.7
2017-04-27T09:51:10.813Z,52.5
2017-04-27T09:52:12.627Z,52.4
2017-04-27T09:53:14.449Z,53.1
2017-04-27T09:54:16.611Z,53.6
2017-04-27T09:55:18.767Z,53.3
2017-04-27T09:56:20.591Z,53.3
2017-04-27T09:57:22.736Z,53.8
2017-04-27T09:58:24.547Z,54.8
2017-04-27T09:59:26.354Z,55.7
2017-04-27T10:00:28.168Z,56.2
2017-04-27T10:01:30.650Z,56.5
2017-04-27T10:02:32.462Z,56.7
2017-04-27T10:03:34.273Z,56.9
2017-04-27T10:04:36.085Z,56.6
2017-04-27T10:05:37.903Z,56.1
2017-04-27T10:06:39.715Z,56.1
2017-04-27T10:07:41.527Z,56.2
2017-04-27T10:08:43.339Z,56.4
2017-04-27T10:09:45.154Z,56.4
2017-04-27T10:10:46.965Z,56.5
2017-04-27T10:11:48.773Z,56.5
2017-04-27T10:12:50.589Z,56.2
2017-04-27T10:13:52.407Z,55.4
2017-04-27T10:14:54.231Z,55.3
2017-04-27T10:15:56.043Z,55.3
2017-04-27T10:16:57.870Z,55.3
2017-04-27T10:17:59.682Z,55.4
2017-04-27T10:19:01.490Z,55.3
2017-04-27T10:20:03.644Z,55.1
2017-04-27T10:21:05.455Z,55
2017-04-27T10:22:07.273Z,55
2017-04-27T10:23:09.081Z,55.1
2017-04-27T10:24:10.901Z,54.7
2017-04-27T10:25:12.744Z,54.1
2017-04-27T10:26:14.559Z,52.9
2017-04-27T10:27:16.375Z,51.9
2017-04-27T10:28:18.193Z,51.6
2017-04-27T10:29:20.009Z,51.8
2017-04-27T10:30:21.827Z,51.5
2017-04-27T10:31:23.636Z,51.2
2017-04-27T10:32:25.453Z,51.2
2017-04-27T10:33:27.601Z,51.2
2017-04-27T10:34:29.417Z,51.1
2017-04-27T10:35:31.229Z,51.2
2017-04-27T10:36:33.038Z,51.2
2017-04-27T10:37:34.853Z,51.1
2017-04-27T10:38:36.669Z,51.2
2017-04-27T10:39:38.482Z,51.5
2017-04-27T10:40:40.290Z,51.5
2017-04-27T10:41:42.106Z,51.5
2017-04-27T10:42:43.930Z,51.4
2017-04-27T10:43:45.745Z,51.4
2017-04-27T10:44:47.551Z,51.5
2017-04-27T10:45:49.366Z,51.7
2017-04-27T10:46:51.173Z,52.6
2017-04-27T10:47:53.328Z,53.3
2017-04-27T10:48:55.136Z,53.9
2017-04-27T10:49:56.948Z,54.3
2017-04-27T10:50:59.095Z,54.4
2017-04-27T10:52:00.915Z,54.8
2017-04-27T10:53:02.727Z,54.8
2017-04-27T10:54:04.540Z,54.7
2017-04-27T10:55:06.352Z,54.8
2017-04-27T10:56:08.168Z,54.8
2017-04-27T10:57:09.981Z,54.4
2017-04-27T10:58:11.819Z,54
2017-04-27T10:59:13.631Z,53.3
2017-04-27T11:00:15.786Z,52.5
2017-04-27T11:01:17.599Z,52.4
2017-04-27T11:02:19.411Z,52.7
2017-04-27T11:03:21.227Z,52.8
2017-04-27T11:04:23.037Z,52.6
2017-04-27T11:05:24.854Z,52
2017-04-27T11:06:26.669Z,51.8
2017-04-27T11:07:28.483Z,51.6
2017-04-27T11:08:30.634Z,51.1
2017-04-27T11:09:32.448Z,50.9
2017-04-27T11:10:34.265Z,51
2017-04-27T11:11:36.074Z,51.1
2017-04-27T11:12:37.891Z,51.6
2017-04-27T11:13:39.700Z,51.8
2017-04-27T11:14:41.512Z,51.5
2017-04-27T11:15:43.333Z,51.1
2017-04-27T11:16:45.144Z,50.9
2017-04-27T11:17:46.956Z,50.8
2017-04-27T11:18:48.766Z,50.8
2017-04-27T11:19:50.585Z,50.7
2017-04-27T11:20:52.399Z,50.5
2017-04-27T11:21:54.209Z,50.1
2017-04-27T11:22:56.366Z,50
2017-04-27T11:23:58.188Z,49.9
2017-04-27T11:25:00.020Z,49.7
2017-04-27T11:26:02.159Z,49.6
2017-04-27T11:27:03.974Z,49.4
2017-04-27T11:28:06.126Z,49.1
2017-04-27T11:29:07.942Z,49.4
2017-04-27T11:30:09.751Z,49.3
2017-04-27T11:31:11.564Z,49.4
2017-04-27T11:32:13.375Z,49.6
2017-04-27T11:33:15.181Z,49.6
2017-04-27T11:34:16.993Z,49.9
2017-04-27T11:35:18.804Z,50.2
2017-04-27T11:36:20.947Z,50.5
2017-04-27T11:37:22.761Z,50.8
2017-04-27T11:38:24.573Z,50.8
2017-04-27T11:39:26.379Z,50.9
2017-04-27T11:40:28.190Z,51.2
2017-04-27T11:41:30.347Z,51.3
2017-04-27T11:42:32.154Z,51.6
2017-04-27T11:43:33.958Z,52.2
2017-04-27T11:44:35.770Z,52.5
2017-04-27T11:45:37.577Z,52.7
2017-04-27T11:46:39.387Z,52.8
2017-04-27T11:47:41.536Z,53
2017-04-27T11:48:43.350Z,53.1
2017-04-27T11:49:45.493Z,53.3
2017-04-27T11:50:47.299Z,53.2
2017-04-27T11:51:49.110Z,53.3
2017-04-27T11:52:50.916Z,53.5
2017-04-27T11:53:52.729Z,52.9
2017-04-27T11:54:54.537Z,52.9
2017-04-27T11:55:56.342Z,52.8
2017-04-27T11:56:58.177Z,52.9
2017-04-27T11:58:00.323Z,52.7
2017-04-27T11:59:02.130Z,52.7
2017-04-27T12:00:03.943Z,52.7
2017-04-27T12:01:05.749Z,52.6
2017-04-27T12:02:07.559Z,52.6
2017-04-27T12:03:09.367Z,52.4
2017-04-27T12:04:11.180Z,52.3
2017-04-27T12:05:12.983Z,52
2017-04-27T12:06:14.796Z,51.9
2017-04-27T12:07:16.955Z,51.6
2017-04-27T12:08:18.769Z,51.4
2017-04-27T12:09:20.586Z,50.8
2017-04-27T12:10:22.740Z,49.8
2017-04-27T12:11:24.551Z,49.5
2017-04-27T12:12:26.365Z,49.3
2017-04-27T12:13:28.175Z,49.2
2017-04-27T12:14:29.983Z,49.2
2017-04-27T12:15:31.803Z,49.2
2017-04-27T12:16:33.617Z,49.2
2017-04-27T12:17:35.430Z,49
2017-04-27T12:18:37.235Z,48.8
2017-04-27T12:19:39.051Z,48.6
2017-04-27T12:20:40.858Z,49.1
2017-04-27T12:21:42.669Z,49.2
2017-04-27T12:22:44.477Z,49.6
2017-04-27T12:23:46.286Z,50
2017-04-27T12:24:48.093Z,50
2017-04-27T12:25:49.903Z,50
2017-04-27T12:26:51.710Z,50.1
2017-04-27T12:27:53.519Z,50.5
2017-04-27T12:28:55.673Z,50.8
2017-04-27T12:29:57.488Z,50.9
2017-04-27T12:30:59.301Z,51
2017-04-27T12:32:01.114Z,51
2017-04-27T12:33:02.932Z,50.9
2017-04-27T12:34:04.737Z,50.6
2017-04-27T12:35:06.555Z,50.1
2017-04-27T12:36:08.702Z,49.8
2017-04-27T12:37:10.519Z,49.6
2017-04-27T12:38:12.668Z,49.7
2017-04-27T12:39:14.478Z,49.9
2017-04-27T12:40:16.650Z,50.1
2017-04-27T12:41:18.463Z,50
2017-04-27T12:42:20.277Z,49.5
2017-04-27T12:43:22.088Z,49.5
2017-04-27T12:44:23.905Z,49.2
2017-04-27T12:45:25.729Z,49
2017-04-27T12:46:27.892Z,49.1
2017-04-27T12:47:29.711Z,49
2017-04-27T12:48:31.534Z,48.8
2017-04-27T12:49:33.355Z,48.5
2017-04-27T12:50:35.177Z,48.1
2017-04-27T12:51:36.989Z,47.8
2017-04-27T12:52:38.808Z,47.4
2017-04-27T12:53:40.625Z,47.3
2017-04-27T12:54:42.441Z,47.1
2017-04-27T12:55:44.593Z,46.8
2017-04-27T12:56:46.410Z,46.9
2017-04-27T12:57:48.221Z,47.2
2017-04-27T12:58:50.038Z,47.3
2017-04-27T12:59:51.863Z,47.4
2017-04-27T13:00:54.014Z,47.4
2017-04-27T13:01:55.833Z,47.3
2017-04-27T13:02:57.654Z,47.3
2017-04-27T13:03:59.470Z,47.4
2017-04-27T13:05:01.282Z,47.5
2017-04-27T13:06:03.435Z,47.7
2017-04-27T13:07:05.254Z,48
2017-04-27T13:08:07.404Z,48
2017-04-27T13:09:09.213Z,48.1
2017-04-27T13:10:11.031Z,48.3
2017-04-27T13:11:12.841Z,48.4
2017-04-27T13:12:14.659Z,48.6
2017-04-27T13:13:16.818Z,48.9
2017-04-27T13:14:18.641Z,49.2
2017-04-27T13:15:20.813Z,49.3
2017-04-27T13:16:22.959Z,49.4
2017-04-27T13:17:24.777Z,49.5
2017-04-27T13:18:26.596Z,49.6
2017-04-27T13:19:28.413Z,49.4
2017-04-27T13:20:30.221Z,48.8
2017-04-27T13:21:32.037Z,48.7
2017-04-27T13:22:33.869Z,48.7
2017-04-27T13:23:35.703Z,48.4
2017-04-27T13:24:37.526Z,48.1
2017-04-27T13:25:39.335Z,48
2017-04-27T13:26:41.151Z,47.7
2017-04-27T13:27:43.084Z,47.7
2017-04-27T13:28:44.992Z,47.7
2017-04-27T13:29:47.142Z,47.8
2017-04-27T13:30:48.964Z,47.8
2017-04-27T13:31:57.909Z,47.8
2017-04-27T13:32:59.744Z,47.7
2017-04-27T13:34:01.558Z,47.6
2017-04-27T13:35:03.374Z,47.8
2017-04-27T13:36:05.182Z,48.1
2017-04-27T13:37:07.002Z,48.6
2017-04-27T13:38:08.874Z,48.8
2017-04-27T13:39:10.689Z,49.2
2017-04-27T13:40:12.851Z,49.3
2017-04-27T13:41:15.002Z,49.5
2017-04-27T13:42:16.813Z,49.4
2017-04-27T13:43:18.626Z,49.1
2017-04-27T13:44:20.442Z,48.9
2017-04-27T13:45:22.588Z,48.3
2017-04-27T13:46:24.406Z,47.7
2017-04-27T13:47:26.222Z,47.4
2017-04-27T13:48:28.035Z,47.2
2017-04-27T13:49:29.855Z,47.1
2017-04-27T13:50:31.669Z,47